sensor_id;sensor_type;location;lat;lon;timestamp;pressure;altitude;pressure_sealevel;temperature;humidity
62600;BME280;48671;48.922;2.346;2023-03-22T00:02:20;101046.97;;;13.22;62.14
62600;BME280;48671;48.922;2.346;2023-03-22T00:04:47;101038.59;;;13.14;62.10
62600;BME280;48671;48.922;2.346;2023-03-22T00:07:13;101032.03;;;13.05;62.17
62600;BME280;48671;48.922;2.346;2023-03-22T00:09:38;101032.09;;;13.04;62.19
62600;BME280;48671;48.922;2.346;2023-03-22T00:12:04;101026.00;;;13.03;62.53
62600;BME280;48671;48.922;2.346;2023-03-22T00:14:30;101019.94;;;13.03;62.33
62600;BME280;48671;48.922;2.346;2023-03-22T00:16:55;101017.47;;;13.00;62.67
62600;BME280;48671;48.922;2.346;2023-03-22T00:19:21;101039.88;;;13.05;62.83
62600;BME280;48671;48.922;2.346;2023-03-22T00:21:46;101020.00;;;13.01;62.63
62600;BME280;48671;48.922;2.346;2023-03-22T00:24:12;101015.91;;;12.96;62.84
62600;BME280;48671;48.922;2.346;2023-03-22T00:26:37;101017.59;;;12.97;62.66
62600;BME280;48671;48.922;2.346;2023-03-22T00:29:03;101017.72;;;12.94;63.29
62600;BME280;48671;48.922;2.346;2023-03-22T00:31:28;101029.56;;;13.02;63.21
62600;BME280;48671;48.922;2.346;2023-03-22T00:33:54;101006.13;;;12.80;63.96
62600;BME280;48671;48.922;2.346;2023-03-22T00:36:19;101006.13;;;12.80;63.71
62600;BME280;48671;48.922;2.346;2023-03-22T00:38:45;101010.97;;;12.89;63.81
62600;BME280;48671;48.922;2.346;2023-03-22T00:41:14;101012.06;;;12.84;64.23
62600;BME280;48671;48.922;2.346;2023-03-22T00:43:40;100991.25;;;12.62;63.90
62600;BME280;48671;48.922;2.346;2023-03-22T00:46:06;101008.28;;;12.71;64.14
62600;BME280;48671;48.922;2.346;2023-03-22T00:48:32;100999.75;;;12.67;64.13
62600;BME280;48671;48.922;2.346;2023-03-22T00:50:57;101007.50;;;12.69;64.01
62600;BME280;48671;48.922;2.346;2023-03-22T00:53:23;101008.50;;;12.66;64.12
62600;BME280;48671;48.922;2.346;2023-03-22T00:55:48;100972.50;;;12.52;64.28
62600;BME280;48671;48.922;2.346;2023-03-22T00:58:13;101002.44;;;12.65;64.13
62600;BME280;48671;48.922;2.346;2023-03-22T01:00:39;100978.53;;;12.54;64.32
62600;BME280;48671;48.922;2.346;2023-03-22T01:03:04;100995.03;;;12.55;64.45
62600;BME280;48671;48.922;2.346;2023-03-22T01:05:31;100972.97;;;12.41;64.52
62600;BME280;48671;48.922;2.346;2023-03-22T01:08:02;100988.34;;;12.49;64.90
62600;BME280;48671;48.922;2.346;2023-03-22T01:10:36;100987.75;;;12.43;64.72
62600;BME280;48671;48.922;2.346;2023-03-22T01:13:02;100970.88;;;12.29;64.70
62600;BME280;48671;48.922;2.346;2023-03-22T01:15:28;100968.25;;;12.29;64.78
62600;BME280;48671;48.922;2.346;2023-03-22T01:17:54;100987.91;;;12.38;65.08
62600;BME280;48671;48.922;2.346;2023-03-22T01:20:19;100977.47;;;12.38;64.66
62600;BME280;48671;48.922;2.346;2023-03-22T01:22:44;100983.75;;;12.34;65.00
62600;BME280;48671;48.922;2.346;2023-03-22T01:25:10;100966.91;;;12.21;64.74
62600;BME280;48671;48.922;2.346;2023-03-22T01:27:36;100962.47;;;12.23;65.42
62600;BME280;48671;48.922;2.346;2023-03-22T01:30:03;100952.31;;;12.16;65.03
62600;BME280;48671;48.922;2.346;2023-03-22T01:32:30;100932.69;;;12.06;65.28
62600;BME280;48671;48.922;2.346;2023-03-22T01:34:55;100942.16;;;12.09;65.29
62600;BME280;48671;48.922;2.346;2023-03-22T01:37:20;100929.34;;;12.04;64.92
62600;BME280;48671;48.922;2.346;2023-03-22T01:39:46;100949.75;;;12.15;65.61
62600;BME280;48671;48.922;2.346;2023-03-22T01:42:14;100929.34;;;12.04;65.24
62600;BME280;48671;48.922;2.346;2023-03-22T01:45:09;100907.88;;;11.98;65.19
62600;BME280;48671;48.922;2.346;2023-03-22T01:47:29;100906.00;;;12.01;65.47
62600;BME280;48671;48.922;2.346;2023-03-22T01:49:56;100919.53;;;12.09;65.13
62600;BME280;48671;48.922;2.346;2023-03-22T01:52:22;100927.78;;;12.21;64.99
62600;BME280;48671;48.922;2.346;2023-03-22T01:54:51;100899.53;;;12.10;64.91
62600;BME280;48671;48.922;2.346;2023-03-22T01:57:17;100896.59;;;11.97;65.61
62600;BME280;48671;48.922;2.346;2023-03-22T01:59:43;100891.63;;;11.91;65.19
62600;BME280;48671;48.922;2.346;2023-03-22T02:02:09;100901.69;;;12.00;65.20
62600;BME280;48671;48.922;2.346;2023-03-22T02:04:39;100889.19;;;11.86;65.63
62600;BME280;48671;48.922;2.346;2023-03-22T02:07:07;100890.13;;;11.85;65.93
62600;BME280;48671;48.922;2.346;2023-03-22T02:09:37;100887.59;;;11.82;66.50
62600;BME280;48671;48.922;2.346;2023-03-22T02:15:07;100893.03;;;11.78;67.01
62600;BME280;48671;48.922;2.346;2023-03-22T02:33:02;100870.31;;;11.59;66.77
62600;BME280;48671;48.922;2.346;2023-03-22T02:35:43;100864.16;;;11.60;66.78
62600;BME280;48671;48.922;2.346;2023-03-22T02:46:30;100857.75;;;11.47;66.75
62600;BME280;48671;48.922;2.346;2023-03-22T02:49:05;100854.63;;;11.39;67.22
62600;BME280;48671;48.922;2.346;2023-03-22T02:51:41;100877.59;;;11.51;67.53
62600;BME280;48671;48.922;2.346;2023-03-22T02:54:17;100874.13;;;11.51;67.43
62600;BME280;48671;48.922;2.346;2023-03-22T02:57:13;100866.69;;;11.41;67.78
62600;BME280;48671;48.922;2.346;2023-03-22T02:59:39;100857.16;;;11.40;67.50
62600;BME280;48671;48.922;2.346;2023-03-22T03:02:09;100869.91;;;11.48;67.37
62600;BME280;48671;48.922;2.346;2023-03-22T03:04:41;100859.84;;;11.39;66.79
62600;BME280;48671;48.922;2.346;2023-03-22T03:07:11;100886.06;;;11.56;67.24
62600;BME280;48671;48.922;2.346;2023-03-22T03:09:40;100875.03;;;11.49;67.10
62600;BME280;48671;48.922;2.346;2023-03-22T03:12:17;100878.47;;;11.50;67.66
62600;BME280;48671;48.922;2.346;2023-03-22T03:14:43;100874.22;;;11.47;67.30
62600;BME280;48671;48.922;2.346;2023-03-22T03:17:27;100886.28;;;11.50;67.21
62600;BME280;48671;48.922;2.346;2023-03-22T03:25:27;100858.88;;;11.41;66.94
62600;BME280;48671;48.922;2.346;2023-03-22T03:28:10;100872.31;;;11.53;67.10
62600;BME280;48671;48.922;2.346;2023-03-22T03:30:56;100851.09;;;11.40;68.13
62600;BME280;48671;48.922;2.346;2023-03-22T03:33:24;100871.59;;;11.49;67.63
62600;BME280;48671;48.922;2.346;2023-03-22T03:35:58;100840.06;;;11.33;67.61
62600;BME280;48671;48.922;2.346;2023-03-22T03:38:28;100843.41;;;11.37;67.77
62600;BME280;48671;48.922;2.346;2023-03-22T03:41:02;100866.50;;;11.46;67.83
62600;BME280;48671;48.922;2.346;2023-03-22T03:43:28;100859.03;;;11.37;67.92
62600;BME280;48671;48.922;2.346;2023-03-22T03:45:55;100850.50;;;11.33;68.22
62600;BME280;48671;48.922;2.346;2023-03-22T03:48:23;100839.44;;;11.28;67.76
62600;BME280;48671;48.922;2.346;2023-03-22T03:50:52;100828.22;;;11.26;67.35
62600;BME280;48671;48.922;2.346;2023-03-22T03:53:18;100850.31;;;11.38;67.88
62600;BME280;48671;48.922;2.346;2023-03-22T03:55:44;100847.53;;;11.42;67.23
62600;BME280;48671;48.922;2.346;2023-03-22T03:58:09;100867.41;;;11.45;67.55
62600;BME280;48671;48.922;2.346;2023-03-22T04:00:35;100847.69;;;11.38;67.33
62600;BME280;48671;48.922;2.346;2023-03-22T04:03:02;100853.66;;;11.41;67.88
62600;BME280;48671;48.922;2.346;2023-03-22T04:05:28;100855.66;;;11.35;67.76
62600;BME280;48671;48.922;2.346;2023-03-22T04:07:53;100873.59;;;11.42;68.29
62600;BME280;48671;48.922;2.346;2023-03-22T04:10:18;100846.38;;;11.28;67.24
62600;BME280;48671;48.922;2.346;2023-03-22T04:12:44;100861.47;;;11.41;67.11
62600;BME280;48671;48.922;2.346;2023-03-22T04:15:10;100876.00;;;11.47;67.25
62600;BME280;48671;48.922;2.346;2023-03-22T04:17:37;100853.81;;;11.37;67.65
62600;BME280;48671;48.922;2.346;2023-03-22T04:20:04;100879.59;;;11.44;67.65
62600;BME280;48671;48.922;2.346;2023-03-22T04:22:30;100841.13;;;11.29;67.85
62600;BME280;48671;48.922;2.346;2023-03-22T04:24:59;100843.47;;;11.35;67.53
62600;BME280;48671;48.922;2.346;2023-03-22T04:27:25;100841.75;;;11.34;67.30
62600;BME280;48671;48.922;2.346;2023-03-22T04:29:51;100833.94;;;11.34;67.50
62600;BME280;48671;48.922;2.346;2023-03-22T04:32:19;100838.91;;;11.40;67.18
62600;BME280;48671;48.922;2.346;2023-03-22T04:34:47;100826.22;;;11.33;67.42
62600;BME280;48671;48.922;2.346;2023-03-22T04:37:14;100826.22;;;11.33;67.65
62600;BME280;48671;48.922;2.346;2023-03-22T04:39:40;100830.34;;;11.38;67.61
62600;BME280;48671;48.922;2.346;2023-03-22T04:42:06;100833.09;;;11.34;67.51
62600;BME280;48671;48.922;2.346;2023-03-22T04:44:31;100820.28;;;11.29;67.72
62600;BME280;48671;48.922;2.346;2023-03-22T04:46:56;100828.63;;;11.37;67.37
62600;BME280;48671;48.922;2.346;2023-03-22T04:49:22;100827.72;;;11.38;67.24
62600;BME280;48671;48.922;2.346;2023-03-22T04:51:48;100815.72;;;11.34;67.52
62600;BME280;48671;48.922;2.346;2023-03-22T04:54:16;100833.84;;;11.37;67.10
62600;BME280;48671;48.922;2.346;2023-03-22T04:56:42;100836.44;;;11.37;67.00
62600;BME280;48671;48.922;2.346;2023-03-22T04:59:07;100821.84;;;11.33;67.50
62600;BME280;48671;48.922;2.346;2023-03-22T05:01:32;100820.16;;;11.32;67.21
62600;BME280;48671;48.922;2.346;2023-03-22T05:03:59;100823.25;;;11.42;67.21
62600;BME280;48671;48.922;2.346;2023-03-22T05:06:24;100819.91;;;11.38;66.73
62600;BME280;48671;48.922;2.346;2023-03-22T05:08:51;100806.16;;;11.35;66.85
62600;BME280;48671;48.922;2.346;2023-03-22T05:11:22;100806.16;;;11.35;66.91
62600;BME280;48671;48.922;2.346;2023-03-22T05:13:52;100803.69;;;11.32;67.16
62600;BME280;48671;48.922;2.346;2023-03-22T05:16:17;100836.03;;;11.48;67.13
62600;BME280;48671;48.922;2.346;2023-03-22T05:18:42;100824.41;;;11.35;67.86
62600;BME280;48671;48.922;2.346;2023-03-22T05:21:13;100808.19;;;11.28;67.05
62600;BME280;48671;48.922;2.346;2023-03-22T05:23:40;100821.84;;;11.33;67.37
62600;BME280;48671;48.922;2.346;2023-03-22T05:26:06;100803.84;;;11.27;67.53
62600;BME280;48671;48.922;2.346;2023-03-22T05:28:33;100834.66;;;11.38;68.14
62600;BME280;48671;48.922;2.346;2023-03-22T05:30:58;100808.28;;;11.25;67.80
62600;BME280;48671;48.922;2.346;2023-03-22T05:33:23;100810.94;;;11.23;68.23
62600;BME280;48671;48.922;2.346;2023-03-22T05:35:50;100820.28;;;11.29;68.14
62600;BME280;48671;48.922;2.346;2023-03-22T05:38:16;100818.44;;;11.31;68.40
62600;BME280;48671;48.922;2.346;2023-03-22T05:40:42;100836.63;;;11.33;68.19
62600;BME280;48671;48.922;2.346;2023-03-22T05:43:08;100811.91;;;11.21;68.25
62600;BME280;48671;48.922;2.346;2023-03-22T05:45:35;100836.81;;;11.28;68.05
62600;BME280;48671;48.922;2.346;2023-03-22T05:48:03;100821.47;;;11.20;68.45
62600;BME280;48671;48.922;2.346;2023-03-22T05:50:29;100829.78;;;11.30;68.03
62600;BME280;48671;48.922;2.346;2023-03-22T05:52:54;100830.69;;;11.29;68.43
62600;BME280;48671;48.922;2.346;2023-03-22T05:55:20;100815.31;;;11.23;68.56
62600;BME280;48671;48.922;2.346;2023-03-22T05:57:46;100808.53;;;11.19;68.71
62600;BME280;48671;48.922;2.346;2023-03-22T06:00:16;100835.66;;;11.35;68.79
62600;BME280;48671;48.922;2.346;2023-03-22T06:02:43;100821.38;;;11.23;68.58
62600;BME280;48671;48.922;2.346;2023-03-22T06:05:10;100830.59;;;11.32;69.07
62600;BME280;48671;48.922;2.346;2023-03-22T06:07:37;100810.94;;;11.23;68.55
62600;BME280;48671;48.922;2.346;2023-03-22T06:10:04;100827.50;;;11.44;68.64
62600;BME280;48671;48.922;2.346;2023-03-22T06:12:30;100824.13;;;11.41;68.68
62600;BME280;48671;48.922;2.346;2023-03-22T06:14:55;100834.56;;;11.41;69.30
62600;BME280;48671;48.922;2.346;2023-03-22T06:17:21;100812.38;;;11.31;68.82
62600;BME280;48671;48.922;2.346;2023-03-22T06:19:46;100816.72;;;11.32;68.77
62600;BME280;48671;48.922;2.346;2023-03-22T06:22:12;100836.19;;;11.43;69.26
62600;BME280;48671;48.922;2.346;2023-03-22T06:24:37;100820.75;;;11.39;69.03
62600;BME280;48671;48.922;2.346;2023-03-22T06:27:05;100841.66;;;11.37;69.24
62600;BME280;48671;48.922;2.346;2023-03-22T06:29:30;100840.50;;;11.44;69.03
62600;BME280;48671;48.922;2.346;2023-03-22T06:31:56;100830.25;;;11.40;69.08
62600;BME280;48671;48.922;2.346;2023-03-22T06:34:21;100828.63;;;11.37;68.98
62600;BME280;48671;48.922;2.346;2023-03-22T06:36:46;100845.72;;;11.44;68.92
62600;BME280;48671;48.922;2.346;2023-03-22T06:39:12;100844.09;;;11.42;68.41
62600;BME280;48671;48.922;2.346;2023-03-22T06:41:37;100859.28;;;11.53;68.53
62600;BME280;48671;48.922;2.346;2023-03-22T06:44:03;100858.25;;;11.57;68.81
62600;BME280;48671;48.922;2.346;2023-03-22T06:46:28;100860.19;;;11.52;68.59
62600;BME280;48671;48.922;2.346;2023-03-22T06:48:53;100870.31;;;11.59;68.64
62600;BME280;48671;48.922;2.346;2023-03-22T06:51:19;100874.56;;;11.62;68.57
62600;BME280;48671;48.922;2.346;2023-03-22T06:53:44;100871.13;;;11.60;68.73
62600;BME280;48671;48.922;2.346;2023-03-22T06:56:10;100890.06;;;11.65;68.78
62600;BME280;48671;48.922;2.346;2023-03-22T06:58:35;100883.13;;;11.64;68.40
62600;BME280;48671;48.922;2.346;2023-03-22T07:01:01;100887.69;;;11.59;69.05
62600;BME280;48671;48.922;2.346;2023-03-22T07:03:26;100875.03;;;11.49;68.80
62600;BME280;48671;48.922;2.346;2023-03-22T07:05:52;100878.44;;;11.52;69.38
62600;BME280;48671;48.922;2.346;2023-03-22T07:08:17;100874.91;;;11.53;69.01
62600;BME280;48671;48.922;2.346;2023-03-22T07:10:48;100875.84;;;11.52;69.37
62600;BME280;48671;48.922;2.346;2023-03-22T07:13:13;100873.72;;;11.61;68.75
62600;BME280;48671;48.922;2.346;2023-03-22T07:15:38;100877.06;;;11.63;69.04
62600;BME280;48671;48.922;2.346;2023-03-22T07:18:05;100879.75;;;11.62;69.24
62600;BME280;48671;48.922;2.346;2023-03-22T07:20:33;100881.41;;;11.64;68.99
62600;BME280;48671;48.922;2.346;2023-03-22T07:23:01;100882.03;;;11.69;69.27
62600;BME280;48671;48.922;2.346;2023-03-22T07:25:26;100894.44;;;11.64;69.38
62600;BME280;48671;48.922;2.346;2023-03-22T07:27:51;100882.50;;;11.59;69.10
62600;BME280;48671;48.922;2.346;2023-03-22T07:30:17;100878.72;;;11.66;68.97
62600;BME280;48671;48.922;2.346;2023-03-22T07:32:42;100891.44;;;11.73;68.75
62600;BME280;48671;48.922;2.346;2023-03-22T07:35:08;100881.91;;;11.72;68.69
62600;BME280;48671;48.922;2.346;2023-03-22T07:37:33;100884.41;;;11.76;69.09
62600;BME280;48671;48.922;2.346;2023-03-22T07:39:58;100868.38;;;11.64;69.25
62600;BME280;48671;48.922;2.346;2023-03-22T07:42:24;100878.47;;;11.72;68.80
62600;BME280;48671;48.922;2.346;2023-03-22T07:44:49;100869.00;;;11.69;68.76
62600;BME280;48671;48.922;2.346;2023-03-22T07:47:15;100897.09;;;11.85;68.30
62600;BME280;48671;48.922;2.346;2023-03-22T07:49:41;100884.06;;;11.83;68.38
62600;BME280;48671;48.922;2.346;2023-03-22T07:52:07;100888.31;;;11.87;68.19
62600;BME280;48671;48.922;2.346;2023-03-22T07:54:32;100882.19;;;11.88;68.29
62600;BME280;48671;48.922;2.346;2023-03-22T07:56:58;100898.41;;;11.95;68.66
62600;BME280;48671;48.922;2.346;2023-03-22T07:59:23;100907.75;;;12.01;68.58
62600;BME280;48671;48.922;2.346;2023-03-22T08:01:49;100883.81;;;11.91;68.54
62600;BME280;48671;48.922;2.346;2023-03-22T08:04:14;100894.97;;;11.94;69.25
62600;BME280;48671;48.922;2.346;2023-03-22T08:06:40;100853.66;;;11.84;69.05
62600;BME280;48671;48.922;2.346;2023-03-22T08:09:06;100881.81;;;11.98;69.11
62600;BME280;48671;48.922;2.346;2023-03-22T08:11:33;100893.19;;;11.95;69.75
62600;BME280;48671;48.922;2.346;2023-03-22T08:13:58;100905.91;;;12.03;68.88
62600;BME280;48671;48.922;2.346;2023-03-22T08:16:24;100904.31;;;12.00;69.65
62600;BME280;48671;48.922;2.346;2023-03-22T08:18:49;100901.50;;;12.05;68.90
62600;BME280;48671;48.922;2.346;2023-03-22T08:21:15;100911.13;;;12.03;69.69
62600;BME280;48671;48.922;2.346;2023-03-22T08:23:40;100895.44;;;12.04;69.17
62600;BME280;48671;48.922;2.346;2023-03-22T08:26:06;100898.09;;;12.03;69.26
62600;BME280;48671;48.922;2.346;2023-03-22T08:28:33;100914.31;;;12.09;69.28
62600;BME280;48671;48.922;2.346;2023-03-22T08:31:18;100900.69;;;12.03;69.50
62600;BME280;48671;48.922;2.346;2023-03-22T08:33:44;100919.03;;;12.01;69.52
62600;BME280;48671;48.922;2.346;2023-03-22T08:36:13;100902.59;;;11.99;70.08
62600;BME280;48671;48.922;2.346;2023-03-22T08:38:39;100896.00;;;11.90;70.31
62600;BME280;48671;48.922;2.346;2023-03-22T08:41:06;100881.47;;;11.85;70.03
62600;BME280;48671;48.922;2.346;2023-03-22T08:43:31;100892.41;;;11.93;70.04
62600;BME280;48671;48.922;2.346;2023-03-22T08:45:57;100894.03;;;11.95;70.04
62600;BME280;48671;48.922;2.346;2023-03-22T08:48:22;100894.97;;;11.94;70.93
62600;BME280;48671;48.922;2.346;2023-03-22T08:50:49;100900.78;;;12.01;70.98
62600;BME280;48671;48.922;2.346;2023-03-22T08:53:14;100890.59;;;11.95;71.41
62600;BME280;48671;48.922;2.346;2023-03-22T08:55:39;100895.59;;;12.00;71.34
62600;BME280;48671;48.922;2.346;2023-03-22T08:58:12;100887.97;;;11.95;71.06
62600;BME280;48671;48.922;2.346;2023-03-22T09:00:41;100898.09;;;12.03;70.92
62600;BME280;48671;48.922;2.346;2023-03-22T09:03:07;100894.63;;;12.02;71.37
62600;BME280;48671;48.922;2.346;2023-03-22T09:05:33;100891.38;;;11.97;71.92
62600;BME280;48671;48.922;2.346;2023-03-22T09:08:01;100878.16;;;11.80;72.17
62600;BME280;48671;48.922;2.346;2023-03-22T09:10:31;100887.91;;;11.97;71.30
62600;BME280;48671;48.922;2.346;2023-03-22T09:13:01;100871.53;;;11.93;72.14
62600;BME280;48671;48.922;2.346;2023-03-22T09:15:28;100853.94;;;11.78;71.28
62600;BME280;48671;48.922;2.346;2023-03-22T09:17:54;100855.59;;;11.79;72.48
62600;BME280;48671;48.922;2.346;2023-03-22T09:20:19;100863.22;;;11.83;72.34
62600;BME280;48671;48.922;2.346;2023-03-22T09:22:50;100852.22;;;11.77;72.50
62600;BME280;48671;48.922;2.346;2023-03-22T09:25:17;100885.59;;;11.90;72.37
62600;BME280;48671;48.922;2.346;2023-03-22T09:27:43;100883.63;;;11.95;72.43
62600;BME280;48671;48.922;2.346;2023-03-22T09:30:08;100868.44;;;11.83;73.21
62600;BME280;48671;48.922;2.346;2023-03-22T09:32:34;100873.44;;;11.89;72.97
62600;BME280;48671;48.922;2.346;2023-03-22T09:35:00;100848.63;;;11.79;73.18
62600;BME280;48671;48.922;2.346;2023-03-22T09:37:28;100868.19;;;11.91;73.57
62600;BME280;48671;48.922;2.346;2023-03-22T09:39:55;100862.69;;;11.97;73.40
62600;BME280;48671;48.922;2.346;2023-03-22T09:44:55;100861.91;;;11.95;73.24
62600;BME280;48671;48.922;2.346;2023-03-22T09:47:32;100867.63;;;12.03;73.61
62600;BME280;48671;48.922;2.346;2023-03-22T09:50:06;100866.75;;;12.04;73.53
62600;BME280;48671;48.922;2.346;2023-03-22T09:52:33;100841.97;;;11.94;73.36
62600;BME280;48671;48.922;2.346;2023-03-22T09:54:58;100848.53;;;12.03;73.25
62600;BME280;48671;48.922;2.346;2023-03-22T09:57:30;100839.94;;;12.01;73.96
62600;BME280;48671;48.922;2.346;2023-03-22T10:06:12;100832.44;;;12.13;73.21
62600;BME280;48671;48.922;2.346;2023-03-22T10:08:19;100823.69;;;12.14;73.29
62600;BME280;48671;48.922;2.346;2023-03-22T10:10:48;100816.66;;;12.16;72.75
62600;BME280;48671;48.922;2.346;2023-03-22T10:13:29;100830.09;;;12.07;73.88
62600;BME280;48671;48.922;2.346;2023-03-22T10:15:59;100825.06;;;12.03;73.79
62600;BME280;48671;48.922;2.346;2023-03-22T10:18:34;100837.13;;;12.05;74.14
62600;BME280;48671;48.922;2.346;2023-03-22T10:21:06;100836.88;;;12.11;74.59
62600;BME280;48671;48.922;2.346;2023-03-22T10:24:06;100837.66;;;12.13;74.16
62600;BME280;48671;48.922;2.346;2023-03-22T10:26:39;100828.91;;;12.14;74.02
62600;BME280;48671;48.922;2.346;2023-03-22T10:29:28;100806.41;;;12.12;73.38
62600;BME280;48671;48.922;2.346;2023-03-22T10:31:55;100821.59;;;12.23;73.51
62600;BME280;48671;48.922;2.346;2023-03-22T10:34:28;100803.91;;;12.29;73.62
62600;BME280;48671;48.922;2.346;2023-03-22T10:36:57;100807.03;;;12.37;73.54
62600;BME280;48671;48.922;2.346;2023-03-22T10:42:00;100801.94;;;12.34;72.82
62600;BME280;48671;48.922;2.346;2023-03-22T10:44:28;100787.13;;;12.35;72.91
62600;BME280;48671;48.922;2.346;2023-03-22T10:46:58;100818.13;;;12.43;72.74
62600;BME280;48671;48.922;2.346;2023-03-22T10:49:31;100797.72;;;12.32;73.04
62600;BME280;48671;48.922;2.346;2023-03-22T10:52:03;100794.25;;;12.31;72.69
62600;BME280;48671;48.922;2.346;2023-03-22T10:54:29;100806.81;;;12.42;72.71
62600;BME280;48671;48.922;2.346;2023-03-22T10:56:54;100810.31;;;12.43;72.80
62600;BME280;48671;48.922;2.346;2023-03-22T10:59:48;100807.69;;;12.43;73.04
62600;BME280;48671;48.922;2.346;2023-03-22T11:02:17;100782.56;;;12.40;72.36
62600;BME280;48671;48.922;2.346;2023-03-22T11:04:48;100777.84;;;12.48;72.47
62600;BME280;48671;48.922;2.346;2023-03-22T11:07:26;100787.63;;;12.62;72.19
62600;BME280;48671;48.922;2.346;2023-03-22T11:12:55;100801.75;;;12.77;71.60
62600;BME280;48671;48.922;2.346;2023-03-22T11:15:26;100787.78;;;12.78;71.96
62600;BME280;48671;48.922;2.346;2023-03-22T11:17:58;100783.97;;;12.85;71.32
62600;BME280;48671;48.922;2.346;2023-03-22T11:20:24;100784.56;;;12.92;70.71
62600;BME280;48671;48.922;2.346;2023-03-22T11:22:50;100791.22;;;12.97;70.67
62600;BME280;48671;48.922;2.346;2023-03-22T11:28:05;100791.63;;;13.07;70.16
62600;BME280;48671;48.922;2.346;2023-03-22T11:30:32;100796.00;;;13.06;70.24
62600;BME280;48671;48.922;2.346;2023-03-22T11:33:18;100788.03;;;13.09;70.18
62600;BME280;48671;48.922;2.346;2023-03-22T11:35:46;100783.66;;;13.10;70.21
62600;BME280;48671;48.922;2.346;2023-03-22T11:38:23;100778.66;;;13.05;69.89
62600;BME280;48671;48.922;2.346;2023-03-22T11:40:55;100773.44;;;13.05;69.89
62600;BME280;48671;48.922;2.346;2023-03-22T11:43:26;100796.28;;;13.19;70.07
62600;BME280;48671;48.922;2.346;2023-03-22T11:45:55;100789.13;;;13.23;69.80
62600;BME280;48671;48.922;2.346;2023-03-22T11:48:24;100786.66;;;13.20;69.63
62600;BME280;48671;48.922;2.346;2023-03-22T11:53:34;100785.47;;;13.27;70.16
62600;BME280;48671;48.922;2.346;2023-03-22T11:56:02;100786.25;;;13.29;69.66
62600;BME280;48671;48.922;2.346;2023-03-22T11:58:52;100802.41;;;13.37;68.72
62600;BME280;48671;48.922;2.346;2023-03-22T12:01:26;100786.81;;;13.35;68.51
62600;BME280;48671;48.922;2.346;2023-03-22T12:03:56;100783.25;;;13.37;69.20
62600;BME280;48671;48.922;2.346;2023-03-22T12:06:28;100788.13;;;13.44;68.36
62600;BME280;48671;48.922;2.346;2023-03-22T12:09:17;100787.75;;;13.52;68.52
62600;BME280;48671;48.922;2.346;2023-03-22T12:11:49;100790.81;;;13.60;68.30
62600;BME280;48671;48.922;2.346;2023-03-22T12:17:27;100784.97;;;13.55;68.04
62600;BME280;48671;48.922;2.346;2023-03-22T12:22:48;100783.13;;;13.57;67.62
62600;BME280;48671;48.922;2.346;2023-03-22T12:25:32;100770.81;;;13.59;67.69
62600;BME280;48671;48.922;2.346;2023-03-22T12:28:04;100768.28;;;13.57;67.28
62600;BME280;48671;48.922;2.346;2023-03-22T12:30:52;100758.44;;;13.63;67.57
62600;BME280;48671;48.922;2.346;2023-03-22T12:33:25;100753.91;;;13.66;67.26
62600;BME280;48671;48.922;2.346;2023-03-22T12:35:55;100740.81;;;13.66;66.22
62600;BME280;48671;48.922;2.346;2023-03-22T12:38:53;100743.97;;;13.73;66.99
62600;BME280;48671;48.922;2.346;2023-03-22T12:41:40;100747.44;;;13.73;66.09
62600;BME280;48671;48.922;2.346;2023-03-22T12:44:21;100744.28;;;13.84;66.88
62600;BME280;48671;48.922;2.346;2023-03-22T12:46:50;100744.19;;;13.86;65.55
62600;BME280;48671;48.922;2.346;2023-03-22T12:51:46;100730.34;;;13.84;65.61
62600;BME280;48671;48.922;2.346;2023-03-22T12:54:13;100743.03;;;13.91;65.56
62600;BME280;48671;48.922;2.346;2023-03-22T12:56:42;100732.56;;;13.91;65.10
62600;BME280;48671;48.922;2.346;2023-03-22T12:59:28;100739.16;;;13.98;65.73
62600;BME280;48671;48.922;2.346;2023-03-22T13:02:04;100726.00;;;14.00;65.45
62600;BME280;48671;48.922;2.346;2023-03-22T13:09:53;100727.97;;;14.12;64.79
62600;BME280;48671;48.922;2.346;2023-03-22T13:17:14;100716.66;;;14.12;64.53
62600;BME280;48671;48.922;2.346;2023-03-22T13:20:01;100715.56;;;14.16;63.73
62600;BME280;48671;48.922;2.346;2023-03-22T13:27:52;100702.75;;;14.27;64.24
62600;BME280;48671;48.922;2.346;2023-03-22T13:32:49;100684.34;;;14.28;63.73
62600;BME280;48671;48.922;2.346;2023-03-22T13:35:26;100694.97;;;14.41;63.70
62600;BME280;48671;48.922;2.346;2023-03-22T13:37:59;100676.66;;;14.41;63.64
62600;BME280;48671;48.922;2.346;2023-03-22T13:40:36;100685.19;;;14.45;63.48
62600;BME280;48671;48.922;2.346;2023-03-22T13:51:09;100683.09;;;14.51;63.32
62600;BME280;48671;48.922;2.346;2023-03-22T13:53:40;100673.81;;;14.46;63.54
62600;BME280;48671;48.922;2.346;2023-03-22T13:56:10;100682.88;;;14.56;63.50
62600;BME280;48671;48.922;2.346;2023-03-22T14:01:18;100669.31;;;14.48;62.81
62600;BME280;48671;48.922;2.346;2023-03-22T14:03:48;100671.00;;;14.49;63.36
62600;BME280;48671;48.922;2.346;2023-03-22T14:06:17;100675.94;;;14.55;63.38
62600;BME280;48671;48.922;2.346;2023-03-22T14:08:46;100666.38;;;14.54;63.21
62600;BME280;48671;48.922;2.346;2023-03-22T14:11:46;100661.91;;;14.56;63.86
62600;BME280;48671;48.922;2.346;2023-03-22T14:14:22;100659.19;;;14.58;63.53
62600;BME280;48671;48.922;2.346;2023-03-22T14:16:51;100667.22;;;14.55;63.30
62600;BME280;48671;48.922;2.346;2023-03-22T14:19:22;100653.06;;;14.59;63.78
62600;BME280;48671;48.922;2.346;2023-03-22T14:21:55;100652.94;;;14.60;63.25
62600;BME280;48671;48.922;2.346;2023-03-22T14:24:23;100648.66;;;14.59;63.52
62600;BME280;48671;48.922;2.346;2023-03-22T14:26:54;100652.00;;;14.61;63.80
62600;BME280;48671;48.922;2.346;2023-03-22T14:29:25;100646.53;;;14.66;63.53